sensor_id;sensor_type;location;lat;lon;timestamp;pressure;altitude;pressure_sealevel;temperature;humidity
55070;BME280;40967;52.070;8.596;2023-01-31T00:01:22;101087.28;;;3.70;100.00
55070;BME280;40967;52.070;8.596;2023-01-31T00:03:55;101098.00;;;3.70;100.00
55070;BME280;40967;52.070;8.596;2023-01-31T00:06:35;101091.63;;;3.71;100.00
55070;BME280;40967;52.070;8.596;2023-01-31T00:09:04;101088.09;;;3.71;100.00
55070;BME280;40967;52.070;8.596;2023-01-31T00:11:30;101081.09;;;3.70;100.00
55070;BME280;40967;52.070;8.596;2023-01-31T00:13:57;101081.91;;;3.70;100.00
55070;BME280;40967;52.070;8.596;2023-01-31T00:16:23;101085.22;;;3.72;100.00
55070;BME280;40967;52.070;8.596;2023-01-31T00:18:49;101080.69;;;3.66;100.00
55070;BME280;40967;52.070;8.596;2023-01-31T00:21:25;101106.88;;;3.77;100.00
55070;BME280;40967;52.070;8.596;2023-01-31T00:23:51;101099.03;;;3.76;100.00
55070;BME280;40967;52.070;8.596;2023-01-31T00:26:21;101104.19;;;3.77;100.00
55070;BME280;40967;52.070;8.596;2023-01-31T00:28:47;101086.88;;;3.73;100.00
55070;BME280;40967;52.070;8.596;2023-01-31T00:31:14;101101.72;;;3.76;100.00
55070;BME280;40967;52.070;8.596;2023-01-31T00:33:42;101091.19;;;3.74;100.00
55070;BME280;40967;52.070;8.596;2023-01-31T00:36:10;101089.75;;;3.78;100.00
55070;BME280;40967;52.070;8.596;2023-01-31T00:38:36;101081.06;;;3.76;100.00
55070;BME280;40967;52.070;8.596;2023-01-31T00:41:02;101073.84;;;3.77;100.00
55070;BME280;40967;52.070;8.596;2023-01-31T00:43:29;101089.94;;;3.83;100.00
55070;BME280;40967;52.070;8.596;2023-01-31T00:45:54;101088.47;;;3.81;100.00
55070;BME280;40967;52.070;8.596;2023-01-31T00:48:20;101094.06;;;3.79;100.00
55070;BME280;40967;52.070;8.596;2023-01-31T00:50:45;101089.13;;;3.76;100.00
55070;BME280;40967;52.070;8.596;2023-01-31T00:53:10;101102.13;;;3.79;100.00
55070;BME280;40967;52.070;8.596;2023-01-31T00:55:36;101095.94;;;3.72;100.00
55070;BME280;40967;52.070;8.596;2023-01-31T00:58:01;101090.59;;;3.66;100.00
55070;BME280;40967;52.070;8.596;2023-01-31T01:00:27;101097.59;;;3.73;100.00
55070;BME280;40967;52.070;8.596;2023-01-31T01:02:52;101096.78;;;3.73;100.00
55070;BME280;40967;52.070;8.596;2023-01-31T01:05:18;101100.28;;;3.73;100.00
55070;BME280;40967;52.070;8.596;2023-01-31T01:07:43;101105.03;;;3.71;100.00
55070;BME280;40967;52.070;8.596;2023-01-31T01:10:09;101095.13;;;3.65;100.00
55070;BME280;40967;52.070;8.596;2023-01-31T01:12:35;101102.34;;;3.71;100.00
55070;BME280;40967;52.070;8.596;2023-01-31T01:15:00;101092.44;;;3.65;100.00
55070;BME280;40967;52.070;8.596;2023-01-31T01:17:26;101112.47;;;3.69;100.00
55070;BME280;40967;52.070;8.596;2023-01-31T01:19:51;101098.88;;;3.64;100.00
55070;BME280;40967;52.070;8.596;2023-01-31T01:22:16;101111.66;;;3.62;100.00
55070;BME280;40967;52.070;8.596;2023-01-31T01:24:43;101107.16;;;3.56;100.00
55070;BME280;40967;52.070;8.596;2023-01-31T01:27:09;101120.97;;;3.60;100.00
55070;BME280;40967;52.070;8.596;2023-01-31T01:29:35;101105.91;;;3.52;100.00
55070;BME280;40967;52.070;8.596;2023-01-31T01:32:00;101102.19;;;3.60;100.00
55070;BME280;40967;52.070;8.596;2023-01-31T01:34:26;101105.06;;;3.58;100.00
55070;BME280;40967;52.070;8.596;2023-01-31T01:36:51;101108.78;;;3.57;100.00
55070;BME280;40967;52.070;8.596;2023-01-31T01:39:17;101105.47;;;3.55;100.00
55070;BME280;40967;52.070;8.596;2023-01-31T01:41:42;101100.75;;;3.51;100.00
55070;BME280;40967;52.070;8.596;2023-01-31T01:47:37;101127.13;;;3.60;100.00
55070;BME280;40967;52.070;8.596;2023-01-31T01:52:42;101126.94;;;3.62;100.00
55070;BME280;40967;52.070;8.596;2023-01-31T01:55:24;101129.03;;;3.60;100.00
55070;BME280;40967;52.070;8.596;2023-01-31T01:57:53;101125.28;;;3.61;100.00
55070;BME280;40967;52.070;8.596;2023-01-31T02:00:22;101135.81;;;3.62;100.00
55070;BME280;40967;52.070;8.596;2023-01-31T02:02:52;101129.44;;;3.63;100.00
55070;BME280;40967;52.070;8.596;2023-01-31T02:05:24;101130.00;;;3.65;100.00
55070;BME280;40967;52.070;8.596;2023-01-31T02:07:51;101127.34;;;3.59;100.00
55070;BME280;40967;52.070;8.596;2023-01-31T02:10:23;101132.91;;;3.64;100.00
55070;BME280;40967;52.070;8.596;2023-01-31T02:12:50;101130.25;;;3.57;100.00
55070;BME280;40967;52.070;8.596;2023-01-31T02:15:16;101139.53;;;3.61;100.00
55070;BME280;40967;52.070;8.596;2023-01-31T02:17:41;101150.91;;;3.63;100.00
55070;BME280;40967;52.070;8.596;2023-01-31T02:23:02;101153.56;;;3.57;100.00
55070;BME280;40967;52.070;8.596;2023-01-31T02:43:08;101164.75;;;3.40;100.00
55070;BME280;40967;52.070;8.596;2023-01-31T02:45:38;101162.66;;;3.36;100.00
55070;BME280;40967;52.070;8.596;2023-01-31T02:49:07;101159.38;;;3.27;100.00
55070;BME280;40967;52.070;8.596;2023-01-31T02:51:09;101169.69;;;3.24;100.00
55070;BME280;40967;52.070;8.596;2023-01-31T02:56:17;101138.75;;;3.02;100.00
55070;BME280;40967;52.070;8.596;2023-01-31T02:59:04;101170.28;;;3.13;100.00
55070;BME280;40967;52.070;8.596;2023-01-31T03:01:34;101173.59;;;3.08;100.00
55070;BME280;40967;52.070;8.596;2023-01-31T03:04:05;101167.38;;;3.01;100.00
55070;BME280;40967;52.070;8.596;2023-01-31T03:11:58;101163.66;;;2.96;100.00
55070;BME280;40967;52.070;8.596;2023-01-31T03:17:06;101153.78;;;2.90;100.00
55070;BME280;40967;52.070;8.596;2023-01-31T03:20:03;101158.31;;;2.89;100.00
55070;BME280;40967;52.070;8.596;2023-01-31T03:22:33;101146.13;;;2.87;100.00
55070;BME280;40967;52.070;8.596;2023-01-31T03:24:59;101145.53;;;2.85;100.00
55070;BME280;40967;52.070;8.596;2023-01-31T03:27:26;101132.94;;;2.79;100.00
55070;BME280;40967;52.070;8.596;2023-01-31T03:29:57;101132.31;;;2.77;100.00
55070;BME280;40967;52.070;8.596;2023-01-31T03:32:29;101092.91;;;2.58;100.00
55070;BME280;40967;52.070;8.596;2023-01-31T03:34:57;101137.66;;;2.77;100.00
55070;BME280;40967;52.070;8.596;2023-01-31T03:42:46;101110.88;;;2.64;100.00
55070;BME280;40967;52.070;8.596;2023-01-31T03:47:53;101110.88;;;2.64;100.00
55070;BME280;40967;52.070;8.596;2023-01-31T03:50:27;101105.28;;;2.59;100.00
55070;BME280;40967;52.070;8.596;2023-01-31T03:53:07;101094.13;;;2.49;100.00
55070;BME280;40967;52.070;8.596;2023-01-31T03:58:28;101096.00;;;2.48;100.00
55070;BME280;40967;52.070;8.596;2023-01-31T04:00:56;101100.31;;;2.43;100.00
55070;BME280;40967;52.070;8.596;2023-01-31T04:03:29;101103.84;;;2.50;100.00
55070;BME280;40967;52.070;8.596;2023-01-31T04:05:56;101102.16;;;2.49;100.00
55070;BME280;40967;52.070;8.596;2023-01-31T04:08:21;101084.88;;;2.45;100.00
55070;BME280;40967;52.070;8.596;2023-01-31T04:10:47;101093.91;;;2.44;100.00
55070;BME280;40967;52.070;8.596;2023-01-31T04:13:13;101078.47;;;2.39;100.00
55070;BME280;40967;52.070;8.596;2023-01-31T04:15:39;101091.22;;;2.44;100.00
55070;BME280;40967;52.070;8.596;2023-01-31T04:18:04;101084.84;;;2.38;100.00
55070;BME280;40967;52.070;8.596;2023-01-31T04:20:30;101084.66;;;2.40;100.00
55070;BME280;40967;52.070;8.596;2023-01-31T04:22:55;101092.50;;;2.48;100.00
55070;BME280;40967;52.070;8.596;2023-01-31T04:25:20;101091.66;;;2.47;100.00
55070;BME280;40967;52.070;8.596;2023-01-31T04:27:46;101092.28;;;2.49;100.00
55070;BME280;40967;52.070;8.596;2023-01-31T04:30:11;101084.25;;;2.49;100.00
55070;BME280;40967;52.070;8.596;2023-01-31T04:32:37;101095.59;;;2.45;100.00
55070;BME280;40967;52.070;8.596;2023-01-31T04:35:03;101091.44;;;2.49;100.00
55070;BME280;40967;52.070;8.596;2023-01-31T04:37:28;101085.72;;;2.52;100.00
55070;BME280;40967;52.070;8.596;2023-01-31T04:39:54;101079.72;;;2.50;100.00
55070;BME280;40967;52.070;8.596;2023-01-31T04:42:19;101085.28;;;2.48;100.00
55070;BME280;40967;52.070;8.596;2023-01-31T04:44:44;101076.84;;;2.51;100.00
55070;BME280;40967;52.070;8.596;2023-01-31T04:47:10;101068.38;;;2.48;100.00
55070;BME280;40967;52.070;8.596;2023-01-31T04:49:35;101084.47;;;2.54;100.00
55070;BME280;40967;52.070;8.596;2023-01-31T04:52:01;101073.97;;;2.53;100.00
55070;BME280;40967;52.070;8.596;2023-01-31T04:54:26;101068.38;;;2.54;100.00
55070;BME280;40967;52.070;8.596;2023-01-31T04:56:51;101081.78;;;2.61;100.00
55070;BME280;40967;52.070;8.596;2023-01-31T04:59:17;101073.38;;;2.57;100.00
55070;BME280;40967;52.070;8.596;2023-01-31T05:01:42;101086.75;;;2.64;100.00
55070;BME280;40967;52.070;8.596;2023-01-31T05:04:08;101067.38;;;2.62;100.00
55070;BME280;40967;52.070;8.596;2023-01-31T05:06:33;101082.03;;;2.66;100.00
55070;BME280;40967;52.070;8.596;2023-01-31T05:08:58;101069.22;;;2.68;100.00
55070;BME280;40967;52.070;8.596;2023-01-31T05:11:28;101070.47;;;2.65;100.00
55070;BME280;40967;52.070;8.596;2023-01-31T05:13:53;101071.69;;;2.63;100.00
55070;BME280;40967;52.070;8.596;2023-01-31T05:16:19;101079.75;;;2.69;100.00
55070;BME280;40967;52.070;8.596;2023-01-31T05:18:44;101064.50;;;2.70;100.00
55070;BME280;40967;52.070;8.596;2023-01-31T05:21:12;101048.41;;;2.63;100.00
55070;BME280;40967;52.070;8.596;2023-01-31T05:23:38;101044.09;;;2.69;100.00
55070;BME280;40967;52.070;8.596;2023-01-31T05:26:04;101025.13;;;2.70;100.00
55070;BME280;40967;52.070;8.596;2023-01-31T05:28:29;101023.09;;;2.72;100.00
55070;BME280;40967;52.070;8.596;2023-01-31T05:31:01;101036.88;;;2.82;100.00
55070;BME280;40967;52.070;8.596;2023-01-31T05:33:27;101032.97;;;2.85;100.00
55070;BME280;40967;52.070;8.596;2023-01-31T05:35:54;101029.88;;;2.88;100.00
55070;BME280;40967;52.070;8.596;2023-01-31T05:38:19;101010.91;;;2.83;100.00
55070;BME280;40967;52.070;8.596;2023-01-31T05:40:45;101032.75;;;2.93;100.00
55070;BME280;40967;52.070;8.596;2023-01-31T05:43:10;101026.97;;;2.96;100.00
55070;BME280;40967;52.070;8.596;2023-01-31T05:45:36;101031.13;;;2.98;100.00
55070;BME280;40967;52.070;8.596;2023-01-31T05:48:01;101026.97;;;2.96;100.00
55070;BME280;40967;52.070;8.596;2023-01-31T05:50:27;101028.41;;;3.05;100.00
55070;BME280;40967;52.070;8.596;2023-01-31T05:52:54;101022.63;;;3.08;100.00
55070;BME280;40967;52.070;8.596;2023-01-31T05:55:20;101023.47;;;3.08;100.00
55070;BME280;40967;52.070;8.596;2023-01-31T05:57:46;101024.91;;;3.17;100.00
55070;BME280;40967;52.070;8.596;2023-01-31T06:00:12;101021.38;;;3.17;100.00
55070;BME280;40967;52.070;8.596;2023-01-31T06:02:39;101017.25;;;3.21;100.00
55070;BME280;40967;52.070;8.596;2023-01-31T06:05:06;101008.78;;;3.24;100.00
55070;BME280;40967;52.070;8.596;2023-01-31T06:07:31;101013.31;;;3.30;100.00
55070;BME280;40967;52.070;8.596;2023-01-31T06:09:57;101016.19;;;3.35;100.00
55070;BME280;40967;52.070;8.596;2023-01-31T06:12:22;101017.22;;;3.34;100.00
55070;BME280;40967;52.070;8.596;2023-01-31T06:14:47;101001.94;;;3.41;100.00
55070;BME280;40967;52.070;8.596;2023-01-31T06:17:13;100997.63;;;3.40;100.00
55070;BME280;40967;52.070;8.596;2023-01-31T06:19:38;101006.69;;;3.45;100.00
55070;BME280;40967;52.070;8.596;2023-01-31T06:22:04;101012.63;;;3.47;100.00
55070;BME280;40967;52.070;8.596;2023-01-31T06:24:29;100992.66;;;3.43;100.00
55070;BME280;40967;52.070;8.596;2023-01-31T06:26:55;101003.97;;;3.52;100.00
55070;BME280;40967;52.070;8.596;2023-01-31T06:29:20;101007.25;;;3.54;100.00
55070;BME280;40967;52.070;8.596;2023-01-31T06:31:45;101002.69;;;3.55;100.00
55070;BME280;40967;52.070;8.596;2023-01-31T06:34:11;100998.78;;;3.57;100.00
55070;BME280;40967;52.070;8.596;2023-01-31T06:36:36;100993.00;;;3.60;100.00
55070;BME280;40967;52.070;8.596;2023-01-31T06:39:02;100995.28;;;3.63;100.00
55070;BME280;40967;52.070;8.596;2023-01-31T06:41:28;100997.13;;;3.63;100.00
55070;BME280;40967;52.070;8.596;2023-01-31T06:43:55;101000.19;;;3.66;100.00
55070;BME280;40967;52.070;8.596;2023-01-31T06:46:21;100999.16;;;3.67;100.00
55070;BME280;40967;52.070;8.596;2023-01-31T06:48:47;100990.09;;;3.68;100.00
55070;BME280;40967;52.070;8.596;2023-01-31T06:51:14;100983.66;;;3.69;100.00
55070;BME280;40967;52.070;8.596;2023-01-31T06:53:39;100994.41;;;3.69;100.00
55070;BME280;40967;52.070;8.596;2023-01-31T06:56:05;100988.81;;;3.71;100.00
55070;BME280;40967;52.070;8.596;2023-01-31T06:58:31;100981.38;;;3.73;100.00
55070;BME280;40967;52.070;8.596;2023-01-31T07:01:04;100985.06;;;3.78;100.00
55070;BME280;40967;52.070;8.596;2023-01-31T07:03:30;100988.78;;;3.77;100.00
55070;BME280;40967;52.070;8.596;2023-01-31T07:05:55;100969.19;;;3.70;100.00
55070;BME280;40967;52.070;8.596;2023-01-31T07:08:21;100973.13;;;3.74;100.00
55070;BME280;40967;52.070;8.596;2023-01-31T07:10:47;100987.72;;;3.85;100.00
55070;BME280;40967;52.070;8.596;2023-01-31T07:13:12;100977.47;;;3.75;100.00
55070;BME280;40967;52.070;8.596;2023-01-31T07:15:37;100982.34;;;3.85;100.00
55070;BME280;40967;52.070;8.596;2023-01-31T07:18:03;100977.41;;;3.82;100.00
55070;BME280;40967;52.070;8.596;2023-01-31T07:20:28;100967.91;;;3.86;100.00
55070;BME280;40967;52.070;8.596;2023-01-31T07:22:57;100966.25;;;3.85;100.00
55070;BME280;40967;52.070;8.596;2023-01-31T07:25:24;100957.19;;;3.86;100.00
55070;BME280;40967;52.070;8.596;2023-01-31T07:27:49;100944.78;;;3.85;100.00
55070;BME280;40967;52.070;8.596;2023-01-31T07:30:15;100945.16;;;3.88;100.00
55070;BME280;40967;52.070;8.596;2023-01-31T07:32:41;100944.56;;;3.86;100.00
55070;BME280;40967;52.070;8.596;2023-01-31T07:35:06;100952.16;;;3.89;100.00
55070;BME280;40967;52.070;8.596;2023-01-31T07:37:32;100940.84;;;3.87;100.00
55070;BME280;40967;52.070;8.596;2023-01-31T07:39:57;100938.56;;;3.84;100.00
55070;BME280;40967;52.070;8.596;2023-01-31T07:42:23;100941.66;;;3.88;100.00
55070;BME280;40967;52.070;8.596;2023-01-31T07:44:49;100944.34;;;3.88;100.00
55070;BME280;40967;52.070;8.596;2023-01-31T07:47:14;100911.34;;;3.81;100.00
55070;BME280;40967;52.070;8.596;2023-01-31T07:49:40;100922.66;;;3.89;100.00
55070;BME280;40967;52.070;8.596;2023-01-31T07:52:05;100934.16;;;3.96;100.00
55070;BME280;40967;52.070;8.596;2023-01-31T07:54:31;100924.47;;;3.95;100.00
55070;BME280;40967;52.070;8.596;2023-01-31T07:56:56;100915.81;;;3.93;100.00
55070;BME280;40967;52.070;8.596;2023-01-31T07:59:21;100915.81;;;3.93;100.00
55070;BME280;40967;52.070;8.596;2023-01-31T08:01:47;100912.09;;;3.94;100.00
55070;BME280;40967;52.070;8.596;2023-01-31T08:04:32;100920.34;;;3.99;100.00
55070;BME280;40967;52.070;8.596;2023-01-31T08:06:58;100920.75;;;3.96;100.00
55070;BME280;40967;52.070;8.596;2023-01-31T08:09:27;100908.53;;;4.00;100.00
55070;BME280;40967;52.070;8.596;2023-01-31T08:11:52;100907.53;;;4.01;100.00
55070;BME280;40967;52.070;8.596;2023-01-31T08:14:18;100911.41;;;4.05;100.00
55070;BME280;40967;52.070;8.596;2023-01-31T08:16:47;100917.81;;;4.04;100.00
55070;BME280;40967;52.070;8.596;2023-01-31T08:19:13;100913.06;;;4.06;100.00
55070;BME280;40967;52.070;8.596;2023-01-31T08:21:38;100911.63;;;4.04;100.00
55070;BME280;40967;52.070;8.596;2023-01-31T08:24:03;100897.16;;;4.05;100.00
55070;BME280;40967;52.070;8.596;2023-01-31T08:26:29;100885.00;;;4.02;100.00
55070;BME280;40967;52.070;8.596;2023-01-31T08:28:55;100894.44;;;4.11;100.00
55070;BME280;40967;52.070;8.596;2023-01-31T08:31:23;100887.56;;;4.15;100.00
55070;BME280;40967;52.070;8.596;2023-01-31T08:33:48;100874.50;;;4.19;100.00
55070;BME280;40967;52.070;8.596;2023-01-31T08:36:26;100868.13;;;4.20;100.00
55070;BME280;40967;52.070;8.596;2023-01-31T08:38:52;100865.00;;;4.23;100.00
55070;BME280;40967;52.070;8.596;2023-01-31T08:41:20;100859.38;;;4.24;100.00
55070;BME280;40967;52.070;8.596;2023-01-31T08:43:46;100861.47;;;4.22;100.00
55070;BME280;40967;52.070;8.596;2023-01-31T08:46:13;100864.91;;;4.29;100.00
55070;BME280;40967;52.070;8.596;2023-01-31T08:48:39;100859.56;;;4.29;100.00
55070;BME280;40967;52.070;8.596;2023-01-31T08:51:08;100858.53;;;4.30;100.00
55070;BME280;40967;52.070;8.596;2023-01-31T08:53:36;100861.06;;;4.25;100.00
55070;BME280;40967;52.070;8.596;2023-01-31T08:56:04;100856.47;;;4.26;100.00
55070;BME280;40967;52.070;8.596;2023-01-31T08:58:30;100849.88;;;4.28;100.00
55070;BME280;40967;52.070;8.596;2023-01-31T09:01:07;100852.38;;;4.23;100.00
55070;BME280;40967;52.070;8.596;2023-01-31T09:03:34;100840.88;;;4.16;100.00
55070;BME280;40967;52.070;8.596;2023-01-31T09:06:02;100847.47;;;4.20;100.00
55070;BME280;40967;52.070;8.596;2023-01-31T09:08:28;100844.09;;;4.25;100.00
55070;BME280;40967;52.070;8.596;2023-01-31T09:10:55;100838.13;;;4.23;100.00
55070;BME280;40967;52.070;8.596;2023-01-31T09:13:21;100831.78;;;4.17;100.00
55070;BME280;40967;52.070;8.596;2023-01-31T09:15:57;100828.84;;;4.19;100.00
55070;BME280;40967;52.070;8.596;2023-01-31T09:18:22;100825.22;;;4.13;100.00
55070;BME280;40967;52.070;8.596;2023-01-31T09:20:47;100804.44;;;4.02;100.00
55070;BME280;40967;52.070;8.596;2023-01-31T09:23:13;100821.69;;;4.13;100.00
55070;BME280;40967;52.070;8.596;2023-01-31T09:25:38;100809.75;;;4.09;100.00
55070;BME280;40967;52.070;8.596;2023-01-31T09:28:03;100818.41;;;4.11;100.00
55070;BME280;40967;52.070;8.596;2023-01-31T09:30:29;100806.69;;;4.05;100.00
55070;BME280;40967;52.070;8.596;2023-01-31T09:32:54;100809.59;;;4.04;100.00
55070;BME280;40967;52.070;8.596;2023-01-31T09:35:20;100802.97;;;4.06;100.00
55070;BME280;40967;52.070;8.596;2023-01-31T09:37:45;100791.72;;;3.91;100.00
55070;BME280;40967;52.070;8.596;2023-01-31T09:40:17;100792.78;;;3.90;100.00
55070;BME280;40967;52.070;8.596;2023-01-31T09:42:47;100786.81;;;3.88;100.00
55070;BME280;40967;52.070;8.596;2023-01-31T09:45:18;100808.00;;;3.96;100.00
55070;BME280;40967;52.070;8.596;2023-01-31T09:47:51;100816.28;;;3.95;100.00
55070;BME280;40967;52.070;8.596;2023-01-31T09:53:13;100809.72;;;3.91;100.00
55070;BME280;40967;52.070;8.596;2023-01-31T10:04:15;100811.13;;;3.93;100.00
55070;BME280;40967;52.070;8.596;2023-01-31T10:15:12;100790.47;;;3.94;100.00
55070;BME280;40967;52.070;8.596;2023-01-31T10:17:50;100792.94;;;3.95;100.00
55070;BME280;40967;52.070;8.596;2023-01-31T10:20:32;100787.56;;;3.95;100.00
55070;BME280;40967;52.070;8.596;2023-01-31T10:25:51;100787.50;;;4.02;100.00
55070;BME280;40967;52.070;8.596;2023-01-31T10:33:34;100792.22;;;4.06;100.00
55070;BME280;40967;52.070;8.596;2023-01-31T10:36:16;100788.13;;;4.04;100.00
55070;BME280;40967;52.070;8.596;2023-01-31T10:38:56;100776.13;;;4.06;100.00
55070;BME280;40967;52.070;8.596;2023-01-31T10:41:38;100782.53;;;4.05;100.00
55070;BME280;40967;52.070;8.596;2023-01-31T10:44:12;100781.03;;;4.09;100.00
55070;BME280;40967;52.070;8.596;2023-01-31T10:46:41;100773.22;;;4.08;100.00
55070;BME280;40967;52.070;8.596;2023-01-31T10:49:07;100765.97;;;4.08;100.00
55070;BME280;40967;52.070;8.596;2023-01-31T10:54:26;100754.19;;;4.09;100.00
55070;BME280;40967;52.070;8.596;2023-01-31T10:56:57;100744.84;;;4.12;100.00
55070;BME280;40967;52.070;8.596;2023-01-31T10:59:35;100738.09;;;4.09;100.00
55070;BME280;40967;52.070;8.596;2023-01-31T11:02:01;100747.50;;;4.18;100.00
55070;BME280;40967;52.070;8.596;2023-01-31T11:04:40;100743.97;;;4.18;100.00
55070;BME280;40967;52.070;8.596;2023-01-31T11:07:06;100738.75;;;4.23;100.00
55070;BME280;40967;52.070;8.596;2023-01-31T11:09:37;100703.09;;;4.16;100.00
55070;BME280;40967;52.070;8.596;2023-01-31T11:12:05;100729.88;;;4.22;100.00
55070;BME280;40967;52.070;8.596;2023-01-31T11:14:31;100716.69;;;4.21;100.00
55070;BME280;40967;52.070;8.596;2023-01-31T11:17:12;100704.69;;;4.23;100.00
55070;BME280;40967;52.070;8.596;2023-01-31T11:24:51;100682.50;;;4.28;100.00
55070;BME280;40967;52.070;8.596;2023-01-31T11:27:25;100667.22;;;4.28;100.00
55070;BME280;40967;52.070;8.596;2023-01-31T11:29:54;100673.19;;;4.30;100.00
55070;BME280;40967;52.070;8.596;2023-01-31T11:32:29;100667.38;;;4.33;100.00
55070;BME280;40967;52.070;8.596;2023-01-31T11:35:05;100680.34;;;4.36;100.00
55070;BME280;40967;52.070;8.596;2023-01-31T11:37:33;100694.00;;;4.35;100.00
55070;BME280;40967;52.070;8.596;2023-01-31T11:40:29;100682.44;;;4.34;100.00
55070;BME280;40967;52.070;8.596;2023-01-31T11:45:53;100691.09;;;4.36;100.00
55070;BME280;40967;52.070;8.596;2023-01-31T11:48:25;100667.50;;;4.38;100.00
55070;BME280;40967;52.070;8.596;2023-01-31T11:50:56;100686.31;;;4.38;100.00
55070;BME280;40967;52.070;8.596;2023-01-31T11:53:28;100657.47;;;4.34;100.00
55070;BME280;40967;52.070;8.596;2023-01-31T11:56:08;100670.34;;;4.43;100.00
55070;BME280;40967;52.070;8.596;2023-01-31T11:58:38;100670.56;;;4.42;100.00
55070;BME280;40967;52.070;8.596;2023-01-31T12:01:18;100663.72;;;4.46;100.00
55070;BME280;40967;52.070;8.596;2023-01-31T12:03:54;100680.84;;;4.45;100.00
55070;BME280;40967;52.070;8.596;2023-01-31T12:06:34;100663.94;;;4.44;100.00
55070;BME280;40967;52.070;8.596;2023-01-31T12:09:18;100648.84;;;4.43;100.00
55070;BME280;40967;52.070;8.596;2023-01-31T12:11:52;100643.84;;;4.47;100.00
55070;BME280;40967;52.070;8.596;2023-01-31T12:14:18;100636.63;;;4.47;100.00
55070;BME280;40967;52.070;8.596;2023-01-31T12:16:46;100618.69;;;4.41;100.00
55070;BME280;40967;52.070;8.596;2023-01-31T12:21:48;100626.09;;;4.46;100.00
55070;BME280;40967;52.070;8.596;2023-01-31T12:27:44;100605.69;;;4.56;100.00
55070;BME280;40967;52.070;8.596;2023-01-31T12:41:21;100602.41;;;4.54;100.00
55070;BME280;40967;52.070;8.596;2023-01-31T12:55:33;100608.69;;;4.48;100.00
55070;BME280;40967;52.070;8.596;2023-01-31T13:00:57;100611.97;;;4.50;100.00
55070;BME280;40967;52.070;8.596;2023-01-31T13:06:13;100611.84;;;4.45;100.00
55070;BME280;40967;52.070;8.596;2023-01-31T13:08:45;100614.06;;;4.48;100.00
55070;BME280;40967;52.070;8.596;2023-01-31T13:11:24;100625.16;;;4.52;100.00
55070;BME280;40967;52.070;8.596;2023-01-31T13:13:57;100628.09;;;4.50;100.00
55070;BME280;40967;52.070;8.596;2023-01-31T13:16:41;100615.72;;;4.49;100.00
55070;BME280;40967;52.070;8.596;2023-01-31T13:19:45;100617.94;;;4.52;100.00
55070;BME280;40967;52.070;8.596;2023-01-31T13:22:16;100620.50;;;4.47;100.00
55070;BME280;40967;52.070;8.596;2023-01-31T13:24:46;100605.56;;;4.51;100.00
55070;BME280;40967;52.070;8.596;2023-01-31T13:27:23;100597.94;;;4.48;100.00
55070;BME280;40967;52.070;8.596;2023-01-31T13:29:58;100601.59;;;4.54;100.00
55070;BME280;40967;52.070;8.596;2023-01-31T13:32:33;100605.69;;;4.56;100.00
55070;BME280;40967;52.070;8.596;2023-01-31T13:35:04;100612.09;;;4.55;100.00
55070;BME280;40967;52.070;8.596;2023-01-31T13:37:36;100613.28;;;4.59;100.00
55070;BME280;40967;52.070;8.596;2023-01-31T13:40:17;100595.19;;;4.55;100.00
55070;BME280;40967;52.070;8.596;2023-01-31T13:42:43;100589.94;;;4.60;100.00
55070;BME280;40967;52.070;8.596;2023-01-31T13:45:18;100605.50;;;4.70;100.00
55070;BME280;40967;52.070;8.596;2023-01-31T13:47:50;100591.03;;;4.71;100.00
55070;BME280;40967;52.070;8.596;2023-01-31T13:52:56;100592.41;;;4.73;100.00
55070;BME280;40967;52.070;8.596;2023-01-31T13:55:33;100586.00;;;4.74;100.00
55070;BME280;40967;52.070;8.596;2023-01-31T13:58:06;100577.25;;;4.79;100.00
55070;BME280;40967;52.070;8.596;2023-01-31T14:00:41;100574.78;;;4.77;100.00
55070;BME280;40967;52.070;8.596;2023-01-31T14:03:28;100580.53;;;4.81;100.00
55070;BME280;40967;52.070;8.596;2023-01-31T14:06:00;100566.50;;;4.79;100.00
55070;BME280;40967;52.070;8.596;2023-01-31T14:10:52;100574.81;;;4.89;100.00
55070;BME280;40967;52.070;8.596;2023-01-31T14:13:35;100572.34;;;4.87;100.00
55070;BME280;40967;52.070;8.596;2023-01-31T14:16:02;100575.88;;;4.88;100.00
55070;BME280;40967;52.070;8.596;2023-01-31T14:29:09;100568.06;;;4.98;100.00
55070;BME280;40967;52.070;8.596;2023-01-31T14:31:39;100566.31;;;5.03;100.00
55070;BME280;40967;52.070;8.596;2023-01-31T14:34:05;100554.47;;;4.93;100.00
55070;BME280;40967;52.070;8.596;2023-01-31T14:36:50;100563.84;;;5.02;100.00
55070;BME280;40967;52.070;8.596;2023-01-31T14:45:11;100559.88;;;5.04;100.00
55070;BME280;40967;52.070;8.596;2023-01-31T14:53:33;100571.44;;;5.16;100.00
55070;BME280;40967;52.070;8.596;2023-01-31T14:59:39;100563.28;;;5.23;100.00
55070;BME280;40967;52.070;8.596;2023-01-31T15:02:46;100565.38;;;5.21;100.00
55070;BME280;40967;52.070;8.596;2023-01-31T15:05:20;100576.28;;;5.26;100.00
55070;BME280;40967;52.070;8.596;2023-01-31T15:19:12;100597.66;;;5.44;100.00
55070;BME280;40967;52.070;8.596;2023-01-31T15:21:44;100570.88;;;5.37;100.00
55070;BME280;40967;52.070;8.596;2023-01-31T15:26:56;100582.81;;;5.41;100.00
55070;BME280;40967;52.070;8.596;2023-01-31T15:29:26;100582.34;;;5.44;100.00
55070;BME280;40967;52.070;8.596;2023-01-31T15:32:03;100587.84;;;5.49;100.00
55070;BME280;40967;52.070;8.596;2023-01-31T15:34:33;100587.03;;;5.49;100.00
55070;BME280;40967;52.070;8.596;2023-01-31T15:37:08;100578.00;;;5.55;100.00
55070;BME280;40967;52.070;8.596;2023-01-31T15:39:52;100549.22;;;5.55;100.00
55070;BME280;40967;52.070;8.596;2023-01-31T15:42:37;100540.56;;;5.53;100.00
55070;BME280;40967;52.070;8.596;2023-01-31T15:45:26;100564.19;;;5.63;100.00
55070;BME280;40967;52.070;8.596;2023-01-31T15:47:58;100521.38;;;5.50;100.00